Time;durP1;ratioP1;P1;durP2;ratioP2;P2;SDS_P1;SDS_P2;PMS_P1;PMS_P2;Temp;Humidity;BMP_temperature;BMP_pressure;BME280_temperature;BME280_humidity;BME280_pressure;Samples;Min_cycle;Max_cycle;Signal;HPM_P1;HPM_P2
2021/03/21 00:00:42;;;;;;;20.63;11.50;;;5.80;87.20;;;;;;5115419;28;20046;-37
2021/03/21 00:03:08;;;;;;;11.25;9.50;;;5.90;86.90;;;;;;5115149;28;20375;-36
2021/03/21 00:05:34;;;;;;;14.20;10.27;;;6.10;86.10;;;;;;5115748;28;20038;-37
2021/03/21 00:08:05;;;;;;;15.68;10.45;;;6.10;86.00;;;;;;5115717;28;20031;-36
2021/03/21 00:10:32;;;;;;;14.98;10.90;;;6.10;86.30;;;;;;5115743;28;20055;-36
2021/03/21 00:12:58;;;;;;;14.55;10.70;;;6.10;86.30;;;;;;5115289;28;20023;-35
2021/03/21 00:15:25;;;;;;;14.73;11.25;;;5.90;86.70;;;;;;5115637;28;20251;-36
2021/03/21 00:17:51;;;;;;;14.85;10.52;;;5.90;87.10;;;;;;5115198;28;20011;-35
2021/03/21 00:20:21;;;;;;;13.55;10.60;;;5.80;87.70;;;;;;5115317;27;20104;-35
2021/03/21 00:22:47;;;;;;;15.13;10.98;;;5.80;88.00;;;;;;5115473;28;20031;-35
2021/03/21 00:25:16;;;;;;;18.55;11.35;;;5.80;88.00;;;;;;5115101;28;20034;-36
2021/03/21 00:27:42;;;;;;;15.57;11.10;;;5.90;87.50;;;;;;5115293;27;20034;-36
2021/03/21 00:30:11;;;;;;;14.10;10.05;;;5.90;87.50;;;;;;5115254;28;20106;-36
2021/03/21 00:32:36;;;;;;;13.98;9.63;;;5.80;87.80;;;;;;5114778;27;20028;-36
2021/03/21 00:35:04;;;;;;;10.43;7.72;;;5.80;87.70;;;;;;5115163;28;20027;-36
2021/03/21 00:37:29;;;;;;;13.00;8.25;;;5.80;86.90;;;;;;5114838;28;20024;-36
2021/03/21 00:39:55;;;;;;;10.80;7.50;;;5.90;87.20;;;;;;5114832;28;20102;-36
2021/03/21 00:42:20;;;;;;;9.45;6.95;;;5.90;86.30;;;;;;5114780;28;20034;-36
2021/03/21 00:44:46;;;;;;;9.98;7.35;;;5.80;86.70;;;;;;5114785;28;20027;-36
2021/03/21 00:47:12;;;;;;;11.88;7.72;;;5.80;87.20;;;;;;5114521;28;20139;-36
2021/03/21 00:49:37;;;;;;;9.50;7.43;;;5.80;87.70;;;;;;5114897;28;20069;-36
2021/03/21 00:52:03;;;;;;;10.35;7.20;;;5.70;88.20;;;;;;5114646;28;20019;-36
2021/03/21 00:54:29;;;;;;;14.27;9.07;;;5.60;88.60;;;;;;5114915;28;20094;-36
2021/03/21 00:56:55;;;;;;;15.90;9.13;;;5.60;89.00;;;;;;5113266;28;20049;-36
2021/03/21 00:59:20;;;;;;;13.95;10.00;;;5.60;88.90;;;;;;5114484;28;20020;-36
2021/03/21 01:01:46;;;;;;;12.63;8.20;;;5.60;89.10;;;;;;5114463;28;20031;-36
2021/03/21 01:04:12;;;;;;;11.77;8.45;;;5.60;89.00;;;;;;5113327;28;20024;-36
2021/03/21 01:06:38;;;;;;;11.73;7.53;;;5.50;88.40;;;;;;5114623;28;20031;-36
2021/03/21 01:09:09;;;;;;;13.93;9.35;;;5.60;88.70;;;;;;5114378;28;20572;-36
2021/03/21 01:11:37;;;;;;;16.95;12.38;;;5.60;88.50;;;;;;5114124;28;20046;-36
2021/03/21 01:14:04;;;;;;;19.73;13.25;;;5.60;89.10;;;;;;5114060;28;20024;-36
2021/03/21 01:16:33;;;;;;;19.48;12.07;;;5.50;89.40;;;;;;5113968;28;20411;-36
2021/03/21 01:18:59;;;;;;;21.75;12.52;;;5.60;89.40;;;;;;5113883;28;20035;-35
2021/03/21 01:21:28;;;;;;;16.52;11.30;;;5.60;89.50;;;;;;5113816;28;20023;-35
2021/03/21 01:23:54;;;;;;;18.83;11.95;;;5.50;89.90;;;;;;5112458;28;20034;-35
2021/03/21 01:26:22;;;;;;;18.90;12.43;;;5.50;90.00;;;;;;5113815;28;20020;-35
2021/03/21 01:28:48;;;;;;;17.35;13.05;;;5.50;90.10;;;;;;5113752;28;20031;-37
2021/03/21 01:31:20;;;;;;;19.70;12.10;;;5.50;90.00;;;;;;5113504;28;20028;-37
2021/03/21 01:33:47;;;;;;;21.30;15.55;;;5.40;90.40;;;;;;5113724;28;20856;-35
2021/03/21 01:36:16;;;;;;;22.48;14.88;;;5.40;90.60;;;;;;5113419;28;20024;-35
2021/03/21 01:38:42;;;;;;;22.77;14.57;;;5.40;90.60;;;;;;5113748;28;20020;-35
2021/03/21 01:41:18;;;;;;;26.77;16.27;;;5.50;90.40;;;;;;5113319;28;20031;-35
2021/03/21 01:43:45;;;;;;;27.35;16.80;;;5.50;90.40;;;;;;5113644;28;20024;-35
2021/03/21 01:46:20;;;;;;;28.45;18.13;;;5.40;90.40;;;;;;5113853;28;20027;-36
2021/03/21 01:48:55;;;;;;;28.25;17.85;;;5.60;90.00;;;;;;5113264;28;20131;-35
2021/03/21 01:51:29;;;;;;;32.95;17.38;;;5.60;90.00;;;;;;5113581;28;20027;-37
2021/03/21 01:54:01;;;;;;;28.30;18.15;;;5.60;90.30;;;;;;5113620;28;20069;-36
2021/03/21 01:56:28;;;;;;;30.60;18.50;;;5.60;90.00;;;;;;5113556;28;20024;-36
2021/03/21 01:59:17;;;;;;;35.92;19.35;;;5.50;90.20;;;;;;5113525;28;20030;-36
2021/03/21 02:01:43;;;;;;;32.85;19.83;;;5.30;90.80;;;;;;5107443;28;20040;-36
2021/03/21 02:04:10;;;;;;;33.90;19.98;;;5.50;90.60;;;;;;5112999;28;20024;-35
2021/03/21 02:06:36;;;;;;;29.55;19.02;;;5.50;90.50;;;;;;5113043;28;20028;-35
2021/03/21 02:09:05;;;;;;;35.42;19.38;;;5.50;90.60;;;;;;5113220;28;20095;-35
2021/03/21 02:11:38;;;;;;;30.45;19.58;;;5.60;90.00;;;;;;5113051;28;20023;-35
2021/03/21 02:14:30;;;;;;;36.97;20.52;;;5.50;90.40;;;;;;5112853;28;20020;-35
2021/03/21 02:17:02;;;;;;;32.38;18.95;;;5.60;90.10;;;;;;5112774;28;20494;-35
2021/03/21 02:19:36;;;;;;;37.45;20.02;;;5.50;90.30;;;;;;5111371;28;20416;-35
2021/03/21 02:22:07;;;;;;;36.50;21.77;;;5.50;90.60;;;;;;5112869;28;20024;-35
2021/03/21 02:25:08;;;;;;;37.15;20.77;;;5.50;90.30;;;;;;5113551;28;20034;-38
2021/03/21 02:27:44;;;;;;;37.13;21.55;;;5.40;90.80;;;;;;5116935;28;20110;-35
2021/03/21 02:30:26;;;;;;;36.72;20.95;;;5.60;90.40;;;;;;5117232;28;20034;-35
2021/03/21 02:33:02;;;;;;;41.95;22.27;;;5.40;90.90;;;;;;5116993;28;20027;-36
2021/03/21 02:36:25;;;;;;;38.95;20.40;;;5.40;91.10;;;;;;5117302;28;20041;-35
2021/03/21 02:38:54;;;;;;;41.67;22.33;;;5.40;91.00;;;;;;5074254;28;20415;-35
2021/03/21 02:41:37;;;;;;;45.35;23.88;;;5.40;91.00;;;;;;5057291;28;20469;-35
2021/03/21 02:44:14;;;;;;;47.22;23.67;;;5.50;91.00;;;;;;5090985;28;20032;-35
2021/03/21 02:46:47;;;;;;;46.88;23.05;;;5.60;90.70;;;;;;5115692;28;20023;-35
2021/03/21 02:49:21;;;;;;;44.35;23.40;;;5.50;91.00;;;;;;5117014;28;20036;-35
2021/03/21 02:51:52;;;;;;;42.25;22.23;;;5.50;90.80;;;;;;5116628;28;20031;-35
2021/03/21 02:54:50;;;;;;;41.03;21.83;;;5.40;91.00;;;;;;5116620;28;20034;-35
2021/03/21 02:57:26;;;;;;;46.17;23.27;;;5.50;90.90;;;;;;5116844;28;20447;-35
2021/03/21 02:59:55;;;;;;;41.03;22.40;;;5.50;90.50;;;;;;5116572;28;20023;-35
2021/03/21 03:02:45;;;;;;;41.00;22.95;;;5.50;90.50;;;;;;5116656;28;20019;-36
2021/03/21 03:05:46;;;;;;;45.22;22.63;;;5.50;90.50;;;;;;5116612;28;20090;-35
2021/03/21 03:08:25;;;;;;;;;;;5.50;90.40;;;;;;5093728;28;20569;-36
2021/03/21 03:11:03;;;;;;;35.08;20.20;;;5.60;90.30;;;;;;5116241;28;20393;-35
2021/03/21 03:13:35;;;;;;;44.42;22.98;;;5.50;90.40;;;;;;5116469;28;20027;-35
2021/03/21 03:16:10;;;;;;;41.45;21.77;;;5.50;90.70;;;;;;5115277;28;20499;-36
2021/03/21 03:19:13;;;;;;;42.55;22.17;;;5.50;90.40;;;;;;5116428;28;20096;-35
2021/03/21 03:22:21;;;;;;;36.70;20.08;;;5.50;90.10;;;;;;5116321;28;20140;-35
2021/03/21 03:25:00;;;;;;;32.85;18.88;;;5.50;90.10;;;;;;5110247;28;20115;-36
2021/03/21 03:27:40;;;;;;;36.17;21.67;;;5.60;90.10;;;;;;5116705;28;20358;-36
2021/03/21 03:30:14;;;;;;;38.75;22.25;;;5.60;89.70;;;;;;5115973;28;20019;-35
2021/03/21 03:32:40;;;;;;;37.05;21.65;;;5.70;89.40;;;;;;5115991;28;20035;-35
2021/03/21 03:35:10;;;;;;;40.03;22.15;;;5.70;89.40;;;;;;5114763;28;20538;-36
2021/03/21 03:37:36;;;;;;;35.08;20.10;;;5.70;89.40;;;;;;5116180;27;20099;-35
2021/03/21 03:40:05;;;;;;;34.92;20.30;;;5.60;89.20;;;;;;5114454;28;20024;-36
2021/03/21 03:43:08;;;;;;;36.10;19.92;;;5.70;89.00;;;;;;5115709;28;20073;-35
2021/03/21 03:46:32;;;;;;;32.38;19.98;;;5.60;89.30;;;;;;5115709;27;20058;-36
2021/03/21 03:49:21;;;;;;;30.45;17.33;;;5.70;88.80;;;;;;5072614;28;20136;-36
2021/03/21 03:52:03;;;;;;;29.15;16.50;;;5.80;88.50;;;;;;5058306;28;20114;-36
2021/03/21 03:54:36;;;;;;;32.22;18.88;;;5.70;89.00;;;;;;5103969;28;20107;-36
2021/03/21 03:57:11;;;;;;;30.45;19.10;;;5.80;89.10;;;;;;5116059;28;20020;-36
2021/03/21 03:59:56;;;;;;;31.60;19.50;;;5.80;88.80;;;;;;5115261;28;20119;-36
2021/03/21 04:02:42;;;;;;;27.90;17.80;;;5.80;88.90;;;;;;5115387;28;20494;-35
2021/03/21 04:05:48;;;;;;;28.52;16.75;;;5.80;88.80;;;;;;5115570;27;20402;-35
2021/03/21 04:08:34;;;;;;;28.98;16.50;;;5.70;89.20;;;;;;5113880;28;20027;-35
2021/03/21 04:11:21;;;;;;;28.48;17.23;;;5.70;89.40;;;;;;5115664;28;20494;-35
2021/03/21 04:13:58;;;;;;;25.92;16.30;;;5.70;89.70;;;;;;5114811;28;20020;-36
2021/03/21 04:16:33;;;;;;;35.03;19.58;;;5.70;89.70;;;;;;5115060;28;20028;-35
2021/03/21 04:19:06;;;;;;;30.75;18.13;;;5.50;90.50;;;;;;5115011;28;20020;-36
2021/03/21 04:21:43;;;;;;;30.58;18.25;;;5.60;90.50;;;;;;5115111;28;20071;-35
2021/03/21 04:24:29;;;;;;;33.88;20.48;;;5.50;90.70;;;;;;5115331;28;20479;-36
2021/03/21 04:27:06;;;;;;;34.00;19.42;;;5.60;90.30;;;;;;5115243;28;20487;-36
2021/03/21 04:29:39;;;;;;;29.05;19.13;;;5.70;90.40;;;;;;5114926;28;20020;-35
2021/03/21 04:32:10;;;;;;;26.98;15.77;;;5.70;90.10;;;;;;5114868;28;20027;-36
2021/03/21 04:34:39;;;;;;;21.23;14.20;;;5.60;90.20;;;;;;5114847;28;20020;-35
2021/03/21 04:37:05;;;;;;;25.25;15.35;;;5.70;90.30;;;;;;5113389;28;20019;-35
2021/03/21 04:39:35;;;;;;;28.45;16.05;;;5.70;90.10;;;;;;5114900;28;20049;-35
2021/03/21 04:42:31;;;;;;;22.05;14.43;;;5.70;90.00;;;;;;5114640;28;20030;-35
2021/03/21 04:45:06;;;;;;;21.30;14.70;;;5.80;89.80;;;;;;5113530;28;20039;-35
2021/03/21 04:47:53;;;;;;;22.35;15.23;;;5.70;90.30;;;;;;5114357;28;20499;-36
2021/03/21 04:50:19;;;;;;;22.17;13.50;;;5.80;90.10;;;;;;5115050;28;20058;-36
2021/03/21 04:53:28;;;;;;;18.90;14.43;;;5.80;90.00;;;;;;5114630;28;20060;-36
2021/03/21 04:56:07;;;;;;;17.83;11.13;;;5.70;90.30;;;;;;5114660;28;20015;-36
2021/03/21 04:58:36;;;;;;;15.25;11.98;;;5.70;90.90;;;;;;5114649;28;20348;-36
2021/03/21 05:01:08;;;;;;;14.75;10.60;;;5.70;91.00;;;;;;5114529;28;20022;-35
2021/03/21 05:03:47;;;;;;;15.60;11.13;;;5.70;90.90;;;;;;5114596;28;20064;-35
2021/03/21 05:06:21;;;;;;;13.20;10.55;;;5.60;91.30;;;;;;5114528;28;20024;-36
2021/03/21 05:09:02;;;;;;;15.10;9.75;;;5.50;91.40;;;;;;5114222;28;20030;-35
2021/03/21 05:11:42;;;;;;;16.23;10.35;;;5.60;91.60;;;;;;5112783;28;20026;-36
2021/03/21 05:14:20;;;;;;;17.02;11.95;;;5.60;91.30;;;;;;5114668;28;20524;-36
2021/03/21 05:17:30;;;;;;;13.73;9.93;;;5.60;91.70;;;;;;5112841;28;20043;-36
2021/03/21 05:20:22;;;;;;;16.83;10.13;;;5.50;91.80;;;;;;5080717;28;20046;-36
2021/03/21 05:23:22;;;;;;;14.63;10.43;;;5.60;91.90;;;;;;5114294;28;20539;-35
2021/03/21 05:25:59;;;;;;;13.35;10.10;;;5.60;91.90;;;;;;5114049;28;20069;-35
2021/03/21 05:28:49;;;;;;;17.13;11.30;;;5.50;92.10;;;;;;5113922;28;20036;-36
2021/03/21 05:31:15;;;;;;;17.35;11.13;;;5.60;92.00;;;;;;5114077;28;20035;-35
2021/03/21 05:33:41;;;;;;;17.67;10.77;;;5.60;92.10;;;;;;5112536;28;20032;-35
2021/03/21 05:36:49;;;;;;;12.27;9.70;;;5.60;91.90;;;;;;5112818;28;20043;-35
2021/03/21 05:39:29;;;;;;;12.52;10.07;;;5.60;91.50;;;;;;5099289;28;20036;-35
2021/03/21 05:42:18;;;;;;;15.18;9.88;;;5.70;91.30;;;;;;5113679;28;20028;-35
2021/03/21 05:45:02;;;;;;;11.55;9.45;;;5.80;91.20;;;;;;5113675;28;20020;-35
2021/03/21 05:47:45;;;;;;;9.68;8.05;;;5.80;91.00;;;;;;5113514;28;20446;-35
2021/03/21 05:50:43;;;;;;;12.52;8.45;;;5.80;91.00;;;;;;5113693;28;20034;-35
2021/03/21 05:53:21;;;;;;;11.57;8.52;;;5.80;90.80;;;;;;5113255;28;20509;-36
2021/03/21 05:56:24;;;;;;;12.02;8.77;;;5.80;90.60;;;;;;5113513;28;20016;-36
2021/03/21 05:58:55;;;;;;;9.65;7.80;;;5.80;90.50;;;;;;5113721;28;20027;-35
2021/03/21 06:01:30;;;;;;;14.45;7.88;;;5.80;90.90;;;;;;5117526;28;20023;-35
2021/03/21 06:04:32;;;;;;;13.60;9.43;;;5.90;90.40;;;;;;5117771;28;20032;-36
2021/03/21 06:07:22;;;;;;;10.73;7.95;;;5.90;90.40;;;;;;5118050;28;20027;-35
2021/03/21 06:10:24;;;;;;;9.80;7.67;;;5.80;90.20;;;;;;5116543;28;20364;-36
2021/03/21 06:13:24;;;;;;;13.18;8.07;;;5.90;90.20;;;;;;5118034;28;20032;-36
2021/03/21 06:16:23;;;;;;;13.88;8.52;;;6.00;90.10;;;;;;5117580;28;20023;-36
2021/03/21 06:19:19;;;;;;;10.50;7.63;;;6.00;89.70;;;;;;5117842;28;20020;-36
2021/03/21 06:22:31;;;;;;;14.98;9.40;;;6.00;90.30;;;;;;5117501;28;20032;-36
2021/03/21 06:25:15;;;;;;;14.93;7.57;;;6.00;90.00;;;;;;5074688;28;20028;-36
2021/03/21 06:28:20;;;;;;;12.88;8.30;;;6.10;90.10;;;;;;5074507;28;20071;-36
2021/03/21 06:30:54;;;;;;;8.88;7.30;;;6.00;90.40;;;;;;5111535;28;20058;-35
2021/03/21 06:33:44;;;;;;;12.43;7.88;;;6.00;89.80;;;;;;5115914;28;20050;-35
2021/03/21 06:36:23;;;;;;;11.73;8.83;;;6.20;89.70;;;;;;5116717;28;20475;-36
2021/03/21 06:39:20;;;;;;;15.30;8.32;;;6.10;90.10;;;;;;5117144;28;20605;-35
2021/03/21 06:42:04;;;;;;;10.95;8.50;;;6.00;90.00;;;;;;5116908;28;20020;-36
2021/03/21 06:44:50;;;;;;;11.13;7.07;;;6.00;90.20;;;;;;5117063;28;20028;-35
2021/03/21 06:47:47;;;;;;;12.23;7.45;;;6.00;90.20;;;;;;5117088;28;20047;-35
2021/03/21 06:50:30;;;;;;;17.00;8.30;;;5.90;90.60;;;;;;5116904;28;20460;-35
2021/03/21 06:53:30;;;;;;;15.45;8.45;;;5.90;90.60;;;;;;5116873;28;20095;-35
2021/03/21 06:55:58;;;;;;;15.10;8.73;;;6.20;89.80;;;;;;5116924;28;20463;-36
2021/03/21 06:58:36;;;;;;;17.98;8.02;;;6.10;89.90;;;;;;5116868;28;20051;-35
2021/03/21 07:01:20;;;;;;;11.75;7.32;;;6.10;90.00;;;;;;5116861;28;20024;-35
2021/03/21 07:04:30;;;;;;;14.07;7.35;;;6.10;89.50;;;;;;5116602;28;20069;-35
2021/03/21 07:07:23;;;;;;;7.33;5.53;;;6.10;89.30;;;;;;5100437;28;20040;-35
2021/03/21 07:10:32;;;;;;;7.50;5.75;;;6.20;89.00;;;;;;5116490;28;20257;-35
2021/03/21 07:13:22;;;;;;;11.95;6.03;;;6.30;88.30;;;;;;5116292;28;20056;-35
2021/03/21 07:15:53;;;;;;;9.20;5.32;;;6.30;88.20;;;;;;5116345;28;20028;-35
2021/03/21 07:18:34;;;;;;;7.05;6.00;;;6.30;88.10;;;;;;5116296;28;20028;-35
2021/03/21 07:21:25;;;;;;;10.68;6.07;;;6.40;88.10;;;;;;5116674;28;20098;-35
2021/03/21 07:24:29;;;;;;;11.77;5.43;;;6.50;87.90;;;;;;5116346;28;20024;-35
2021/03/21 07:27:35;;;;;;;6.82;5.65;;;6.30;88.60;;;;;;5073663;28;20085;-35
2021/03/21 07:30:16;;;;;;;8.80;5.15;;;6.50;88.10;;;;;;5061150;28;20025;-35
2021/03/21 07:33:08;;;;;;;10.00;5.20;;;6.60;88.00;;;;;;5108479;28;20036;-35
2021/03/21 07:36:04;;;;;;;9.27;4.80;;;6.50;87.90;;;;;;5116652;27;20111;-35
2021/03/21 07:38:35;;;;;;;15.93;5.47;;;6.70;88.40;;;;;;5116592;27;20473;-35
2021/03/21 07:41:28;;;;;;;9.60;5.00;;;6.90;86.90;;;;;;5115131;28;20039;-35
2021/03/21 07:44:28;;;;;;;6.03;4.07;;;6.80;86.60;;;;;;5115986;28;20020;-35
2021/03/21 07:47:12;;;;;;;5.05;2.90;;;6.80;85.60;;;;;;5115996;28;20031;-37
2021/03/21 07:49:56;;;;;;;6.07;3.90;;;6.90;85.70;;;;;;5116074;28;20032;-36
2021/03/21 07:52:43;;;;;;;4.22;2.85;;;7.00;85.90;;;;;;5116716;28;20490;-40
2021/03/21 07:55:42;;;;;;;8.63;3.22;;;7.20;84.60;;;;;;5115915;28;20026;-36
2021/03/21 07:58:20;;;;;;;5.75;3.78;;;7.20;84.40;;;;;;5115852;28;20065;-36
2021/03/21 08:00:46;;;;;;;5.10;2.67;;;7.10;84.60;;;;;;5115706;28;20489;-36
2021/03/21 08:03:12;;;;;;;6.32;2.15;;;7.10;84.50;;;;;;5115481;28;20094;-36
2021/03/21 08:05:38;;;;;;;5.30;2.30;;;7.20;83.40;;;;;;5115441;28;20050;-36
2021/03/21 08:08:09;;;;;;;6.30;2.58;;;7.20;82.90;;;;;;5115271;28;20019;-36
2021/03/21 08:10:38;;;;;;;6.78;2.22;;;7.40;82.20;;;;;;5115596;28;20028;-36
2021/03/21 08:13:19;;;;;;;5.82;2.25;;;7.30;82.20;;;;;;5115383;28;20042;-36
2021/03/21 08:15:45;;;;;;;;;;;7.30;81.40;;;;;;5115922;28;20024;-36
2021/03/21 08:18:20;;;;;;;4.50;1.60;;;7.20;80.80;;;;;;5114999;28;19911;-36
2021/03/21 08:20:48;;;;;;;4.28;1.98;;;7.10;80.10;;;;;;5115118;28;20088;-35
2021/03/21 08:23:20;;;;;;;5.82;3.17;;;7.10;79.60;;;;;;5113992;28;20039;-35
2021/03/21 08:25:46;;;;;;;8.68;2.55;;;7.10;79.20;;;;;;5115109;28;20051;-36
2021/03/21 08:28:16;;;;;;;8.70;2.35;;;7.30;79.10;;;;;;5115157;28;20061;-36
2021/03/21 08:30:46;;;;;;;7.93;1.67;;;7.40;74.60;;;;;;5114892;27;20446;-36
2021/03/21 08:33:12;;;;;;;5.03;1.90;;;7.40;72.80;;;;;;5115267;28;20076;-36
2021/03/21 08:35:38;;;;;;;11.82;2.17;;;7.60;73.10;;;;;;5114792;28;20024;-36
2021/03/21 08:38:16;;;;;;;7.40;1.67;;;7.40;71.30;;;;;;5113489;28;20028;-36
2021/03/21 08:40:44;;;;;;;9.85;1.90;;;7.40;72.00;;;;;;5115000;28;20019;-36
2021/03/21 08:43:26;;;;;;;8.75;3.25;;;7.40;71.00;;;;;;5114712;28;20028;-35
2021/03/21 08:45:55;;;;;;;18.83;5.40;;;7.30;72.40;;;;;;5114974;28;20035;-35
2021/03/21 08:48:36;;;;;;;10.35;2.45;;;7.50;71.80;;;;;;5114222;28;20176;-36
2021/03/21 08:51:04;;;;;;;7.63;2.13;;;7.60;71.00;;;;;;5114772;28;20028;-35
2021/03/21 08:53:44;;;;;;;21.92;4.28;;;7.60;69.70;;;;;;5114439;27;20031;-36
2021/03/21 08:56:15;;;;;;;13.93;2.45;;;7.50;69.00;;;;;;5114377;28;20015;-36
2021/03/21 08:58:41;;;;;;;15.43;3.38;;;7.40;69.30;;;;;;5113859;28;20023;-36
2021/03/21 09:01:33;;;;;;;12.95;3.28;;;7.50;69.10;;;;;;5114583;28;20028;-37
2021/03/21 09:04:10;;;;;;;11.75;2.22;;;7.30;69.80;;;;;;5112678;28;20039;-36
2021/03/21 09:06:40;;;;;;;10.52;3.03;;;7.30;71.50;;;;;;5113828;28;20032;-36
2021/03/21 09:09:21;;;;;;;14.80;3.00;;;7.50;71.00;;;;;;5114111;28;20027;-35
2021/03/21 09:11:55;;;;;;;;;;;7.60;70.40;;;;;;5114706;28;20040;-36
2021/03/21 09:14:32;;;;;;;27.17;3.90;;;7.60;70.70;;;;;;5114356;28;19922;-36
2021/03/21 09:17:04;;;;;;;9.43;2.85;;;7.60;71.00;;;;;;5114324;28;20034;-36
2021/03/21 09:19:34;;;;;;;10.07;2.17;;;7.40;70.40;;;;;;5112756;28;20047;-36
2021/03/21 09:22:25;;;;;;;13.13;3.00;;;7.20;72.00;;;;;;5114158;28;20472;-36
2021/03/21 09:25:07;;;;;;;11.27;3.88;;;7.40;71.70;;;;;;5108759;27;20055;-37
2021/03/21 09:27:38;;;;;;;13.68;2.42;;;7.40;71.30;;;;;;5114038;28;20486;-36
2021/03/21 09:30:27;;;;;;;21.77;5.07;;;7.60;70.20;;;;;;5114546;28;20024;-36
2021/03/21 09:33:03;;;;;;;17.80;2.35;;;7.70;69.80;;;;;;5113663;28;20039;-36
2021/03/21 09:35:40;;;;;;;11.63;2.65;;;7.80;68.90;;;;;;5114037;28;20061;-36
2021/03/21 09:38:16;;;;;;;10.60;2.58;;;7.80;69.10;;;;;;5114070;28;20023;-36
2021/03/21 09:40:46;;;;;;;16.15;2.63;;;7.80;69.40;;;;;;5114525;28;20062;-37
2021/03/21 09:43:19;;;;;;;24.23;4.78;;;7.90;69.10;;;;;;5114058;28;20490;-36
2021/03/21 09:45:50;;;;;;;20.17;3.72;;;7.80;69.00;;;;;;5113918;28;20031;-37
2021/03/21 09:48:26;;;;;;;13.13;3.17;;;7.50;69.80;;;;;;5113786;28;20047;-36
2021/03/21 09:51:10;;;;;;;12.45;2.92;;;7.60;69.70;;;;;;5113686;28;20023;-37
2021/03/21 09:54:24;;;;;;;8.43;2.03;;;7.60;70.20;;;;;;5113672;28;20031;-35
2021/03/21 09:57:07;;;;;;;15.55;3.28;;;7.50;70.80;;;;;;5104977;28;20117;-36
2021/03/21 10:00:00;;;;;;;17.73;4.32;;;7.40;70.40;;;;;;5112510;28;20026;-36
2021/03/21 10:02:43;;;;;;;25.23;5.28;;;7.40;68.40;;;;;;5108751;28;20495;-36
2021/03/21 10:05:15;;;;;;;17.67;4.40;;;7.70;67.00;;;;;;5114394;28;20024;-37
2021/03/21 10:07:44;;;;;;;13.32;4.25;;;7.80;65.60;;;;;;5113871;28;20046;-36
2021/03/21 10:10:28;;;;;;;28.00;4.10;;;7.80;64.20;;;;;;5113611;28;20514;-36
2021/03/21 10:12:54;;;;;;;17.40;3.28;;;7.70;64.40;;;;;;5113572;28;20024;-37
2021/03/21 10:15:26;;;;;;;25.02;4.57;;;7.60;64.90;;;;;;5113698;28;20485;-36
2021/03/21 10:17:59;;;;;;;23.20;5.50;;;7.70;65.00;;;;;;5113913;28;20024;-36
2021/03/21 10:21:02;;;;;;;23.83;5.35;;;7.60;65.70;;;;;;5113583;28;20036;-36
2021/03/21 10:23:48;;;;;;;22.88;3.85;;;7.80;64.30;;;;;;5111024;28;20040;-36
2021/03/21 10:26:16;;;;;;;9.98;2.88;;;7.60;65.10;;;;;;5106073;28;20031;-37
2021/03/21 10:28:45;;;;;;;15.15;4.10;;;7.40;62.20;;;;;;5113602;28;20475;-36
2021/03/21 10:31:26;;;;;;;25.13;4.95;;;7.30;61.90;;;;;;5113909;28;20475;-36
2021/03/21 10:34:06;;;;;;;15.27;4.65;;;7.50;61.10;;;;;;5113859;28;20092;-36
2021/03/21 10:36:41;;;;;;;25.70;4.95;;;7.60;60.20;;;;;;5113817;28;20080;-36
2021/03/21 10:39:23;;;;;;;20.65;3.65;;;7.40;61.20;;;;;;5113491;28;20024;-36
2021/03/21 10:42:01;;;;;;;23.48;4.45;;;7.70;59.30;;;;;;5113682;28;20475;-36
2021/03/21 10:44:36;;;;;;;15.57;3.45;;;7.50;60.50;;;;;;5113340;28;20016;-36
2021/03/21 10:47:09;;;;;;;27.23;3.88;;;7.50;61.10;;;;;;5116025;28;20078;-36
2021/03/21 10:49:54;;;;;;;24.35;5.75;;;7.70;60.40;;;;;;5116879;28;20042;-36
2021/03/21 10:52:28;;;;;;;27.92;4.68;;;8.10;60.40;;;;;;5116931;28;20024;-36
2021/03/21 10:55:12;;;;;;;35.25;6.80;;;8.80;57.90;;;;;;5117255;28;20032;-36
2021/03/21 10:57:50;;;;;;;22.02;4.90;;;9.30;56.70;;;;;;5116859;28;20027;-37
2021/03/21 11:00:26;;;;;;;25.52;4.57;;;9.80;54.90;;;;;;5117234;28;20016;-37
2021/03/21 11:03:00;;;;;;;18.85;4.75;;;9.30;55.30;;;;;;5117075;28;20471;-36
2021/03/21 11:05:29;;;;;;;20.27;5.95;;;9.10;57.20;;;;;;5116710;27;20020;-37
2021/03/21 11:08:21;;;;;;;14.93;3.22;;;9.30;56.80;;;;;;5116732;28;20027;-36
2021/03/21 11:10:52;;;;;;;25.40;4.35;;;8.40;58.80;;;;;;5116940;28;20098;-36
2021/03/21 11:13:25;;;;;;;35.38;7.13;;;8.60;59.50;;;;;;5116512;27;20030;-37
2021/03/21 11:15:52;;;;;;;25.33;4.97;;;8.90;57.80;;;;;;5116831;28;20024;-38
2021/03/21 11:18:33;;;;;;;25.10;3.40;;;8.80;57.70;;;;;;5116634;27;20023;-36
2021/03/21 11:21:08;;;;;;;17.15;4.03;;;9.00;56.90;;;;;;5116607;28;20135;-36
2021/03/21 11:23:58;;;;;;;27.40;5.35;;;9.20;56.50;;;;;;5116276;28;20047;-36
2021/03/21 11:26:33;;;;;;;17.83;3.80;;;9.50;53.80;;;;;;5116553;28;20383;-35
2021/03/21 11:29:01;;;;;;;22.17;4.10;;;9.50;53.70;;;;;;5115086;28;20028;-36
2021/03/21 11:31:47;;;;;;;28.85;6.53;;;9.10;54.60;;;;;;5116242;28;20024;-36
2021/03/21 11:34:27;;;;;;;34.20;7.20;;;8.80;56.40;;;;;;5116537;28;20471;-36
2021/03/21 11:37:02;;;;;;;23.35;4.47;;;9.10;55.30;;;;;;5116570;28;20059;-36
2021/03/21 11:39:34;;;;;;;21.75;5.45;;;9.10;53.90;;;;;;5116337;28;20044;-36
2021/03/21 11:42:00;;;;;;;21.55;5.10;;;9.40;53.10;;;;;;5116035;28;20024;-36
2021/03/21 11:44:32;;;;;;;15.25;3.90;;;9.30;53.30;;;;;;5115872;28;20035;-36
2021/03/21 11:47:26;;;;;;;25.85;6.32;;;8.90;54.10;;;;;;5115794;27;20062;-37
2021/03/21 11:49:53;;;;;;;26.70;4.75;;;8.90;55.00;;;;;;5116087;28;20024;-36
2021/03/21 11:52:19;;;;;;;25.90;5.32;;;9.00;55.10;;;;;;5115832;28;20031;-36
2021/03/21 11:54:46;;;;;;;18.15;5.10;;;8.80;54.30;;;;;;5115954;28;20360;-37
2021/03/21 11:57:25;;;;;;;34.58;4.15;;;9.30;53.40;;;;;;5115995;28;20429;-36
2021/03/21 12:00:14;;;;;;;34.63;7.40;;;9.40;52.40;;;;;;5115790;28;20072;-37
2021/03/21 12:02:56;;;;;;;27.30;4.20;;;9.30;53.10;;;;;;5115390;28;20152;-39
2021/03/21 12:05:25;;;;;;;14.73;4.28;;;9.10;53.90;;;;;;5116294;28;20050;-37
2021/03/21 12:07:51;;;;;;;17.42;4.03;;;9.60;53.10;;;;;;5115970;28;20023;-37
2021/03/21 12:10:30;;;;;;;26.20;4.72;;;9.60;52.90;;;;;;5114532;28;20039;-37
2021/03/21 12:12:57;;;;;;;25.00;5.95;;;9.30;52.00;;;;;;5115759;28;20117;-36
2021/03/21 12:15:22;;;;;;;31.45;5.45;;;9.00;53.70;;;;;;5115832;28;20068;-37
2021/03/21 12:17:48;;;;;;;29.63;4.65;;;9.10;54.20;;;;;;5114380;28;20427;-37
2021/03/21 12:20:40;;;;;;;27.92;6.82;;;9.30;53.90;;;;;;5115494;28;20034;-36
2021/03/21 12:23:20;;;;;;;33.35;5.25;;;9.40;53.10;;;;;;5114264;28;20076;-36
2021/03/21 12:25:46;;;;;;;27.00;4.75;;;9.10;53.40;;;;;;5114194;28;20053;-37
2021/03/21 12:28:21;;;;;;;27.13;5.25;;;9.30;52.60;;;;;;5115952;28;20035;-36
2021/03/21 12:30:53;;;;;;;29.38;4.57;;;9.20;52.50;;;;;;5115030;28;20032;-37
2021/03/21 12:33:27;;;;;;;24.90;5.63;;;9.40;52.20;;;;;;5113702;28;20054;-38
2021/03/21 12:36:09;;;;;;;17.65;4.15;;;9.70;50.90;;;;;;5115372;28;20486;-37
2021/03/21 12:38:39;;;;;;;28.67;8.32;;;9.70;50.80;;;;;;5115249;28;20039;-37
2021/03/21 12:41:23;;;;;;;16.60;4.28;;;9.30;52.10;;;;;;5113936;28;20027;-36
2021/03/21 12:44:22;;;;;;;28.08;4.90;;;8.90;53.70;;;;;;5115513;28;20028;-36
2021/03/21 12:47:01;;;;;;;26.90;4.53;;;9.00;53.20;;;;;;5114882;28;20463;-38
2021/03/21 12:49:36;;;;;;;20.90;5.78;;;9.70;52.20;;;;;;5115060;28;20032;-36
2021/03/21 12:52:11;;;;;;;23.77;4.35;;;9.60;51.80;;;;;;5115270;28;20582;-36
2021/03/21 12:54:40;;;;;;;24.17;4.82;;;9.70;51.40;;;;;;5096831;28;20051;-36
2021/03/21 12:57:11;;;;;;;39.08;6.97;;;9.40;51.10;;;;;;5115041;28;20478;-36
2021/03/21 12:59:38;;;;;;;24.30;4.82;;;9.50;51.70;;;;;;5114915;28;20457;-36
2021/03/21 13:02:04;;;;;;;29.17;5.60;;;9.70;50.50;;;;;;5114654;28;20472;-36
2021/03/21 13:04:33;;;;;;;29.83;6.45;;;9.80;49.80;;;;;;5114818;28;20031;-36
2021/03/21 13:06:58;;;;;;;27.63;7.10;;;9.50;50.70;;;;;;5113243;28;20028;-37
2021/03/21 13:09:24;;;;;;;20.38;5.93;;;9.50;51.20;;;;;;5114617;28;20027;-37
2021/03/21 13:11:50;;;;;;;30.50;7.40;;;9.40;51.20;;;;;;5114487;28;20464;-37
2021/03/21 13:14:15;;;;;;;31.15;4.50;;;9.70;50.90;;;;;;5114657;28;20471;-36
2021/03/21 13:16:41;;;;;;;18.58;4.95;;;9.80;51.10;;;;;;5113135;28;20020;-36
2021/03/21 13:19:07;;;;;;;28.45;4.35;;;9.80;50.80;;;;;;5112839;28;20016;-41
2021/03/21 13:21:33;;;;;;;27.40;5.00;;;9.80;51.30;;;;;;5114708;28;20046;-35
2021/03/21 13:24:01;;;;;;;34.90;6.78;;;9.80;51.60;;;;;;5114180;28;20091;-35
2021/03/21 13:26:27;;;;;;;22.98;5.72;;;9.40;51.80;;;;;;5114246;28;20023;-36
2021/03/21 13:28:53;;;;;;;28.95;6.90;;;9.80;51.40;;;;;;5113987;28;20103;-35
2021/03/21 13:31:19;;;;;;;34.92;5.57;;;9.70;51.60;;;;;;5113164;28;20049;-36
2021/03/21 13:33:45;;;;;;;27.15;7.57;;;9.90;51.00;;;;;;5114112;28;20035;-36
2021/03/21 13:36:13;;;;;;;27.60;4.63;;;9.50;51.70;;;;;;5114105;28;20020;-37
2021/03/21 13:38:42;;;;;;;22.77;5.85;;;9.80;51.50;;;;;;5114004;28;20028;-36